sensor_id;sensor_type;location;lat;lon;timestamp;P1;durP1;ratioP1;P2;durP2;ratioP2
69485;SDS011;56677;51.710;5.366;2023-03-01T07:26:58;4.30;;;2.47;;
69485;SDS011;56677;51.710;5.366;2023-03-01T07:29:24;5.50;;;1.98;;
69485;SDS011;56677;51.710;5.366;2023-03-01T07:31:49;4.22;;;2.00;;
69485;SDS011;56677;51.710;5.366;2023-03-01T07:34:14;7.00;;;2.40;;
69485;SDS011;56677;51.710;5.366;2023-03-01T07:36:39;3.17;;;1.98;;
69485;SDS011;56677;51.710;5.366;2023-03-01T07:39:04;3.07;;;2.17;;
69485;SDS011;56677;51.710;5.366;2023-03-01T07:41:29;3.70;;;2.00;;
69485;SDS011;56677;51.710;5.366;2023-03-01T07:43:54;3.43;;;1.97;;
69485;SDS011;56677;51.710;5.366;2023-03-01T07:46:20;3.07;;;1.67;;
69485;SDS011;56677;51.710;5.366;2023-03-01T07:48:45;7.00;;;1.83;;
69485;SDS011;56677;51.710;5.366;2023-03-01T07:51:10;5.82;;;1.80;;
69485;SDS011;56677;51.710;5.366;2023-03-01T07:53:35;5.47;;;2.00;;
69485;SDS011;56677;51.710;5.366;2023-03-01T07:56:04;7.07;;;2.22;;
69485;SDS011;56677;51.710;5.366;2023-03-01T07:58:29;5.32;;;1.95;;
69485;SDS011;56677;51.710;5.366;2023-03-01T08:00:54;4.63;;;2.40;;
69485;SDS011;56677;51.710;5.366;2023-03-01T08:03:19;7.65;;;2.50;;
69485;SDS011;56677;51.710;5.366;2023-03-01T08:05:45;7.55;;;2.67;;
69485;SDS011;56677;51.710;5.366;2023-03-01T08:08:10;8.73;;;2.40;;
69485;SDS011;56677;51.710;5.366;2023-03-01T08:10:35;4.70;;;1.90;;
69485;SDS011;56677;51.710;5.366;2023-03-01T08:13:00;4.80;;;2.30;;
69485;SDS011;56677;51.710;5.366;2023-03-01T08:15:26;4.57;;;2.42;;
69485;SDS011;56677;51.710;5.366;2023-03-01T08:17:51;4.18;;;1.77;;
69485;SDS011;56677;51.710;5.366;2023-03-01T08:20:16;4.70;;;2.40;;
69485;SDS011;56677;51.710;5.366;2023-03-01T08:22:41;5.37;;;2.33;;
69485;SDS011;56677;51.710;5.366;2023-03-01T08:25:06;4.72;;;1.98;;
69485;SDS011;56677;51.710;5.366;2023-03-01T08:27:31;3.33;;;1.97;;
69485;SDS011;56677;51.710;5.366;2023-03-01T08:29:56;4.43;;;1.98;;
69485;SDS011;56677;51.710;5.366;2023-03-01T08:32:22;3.20;;;2.20;;
69485;SDS011;56677;51.710;5.366;2023-03-01T08:34:47;4.32;;;2.03;;
69485;SDS011;56677;51.710;5.366;2023-03-01T08:37:12;5.97;;;1.80;;
69485;SDS011;56677;51.710;5.366;2023-03-01T08:39:37;6.03;;;1.90;;
69485;SDS011;56677;51.710;5.366;2023-03-01T08:42:02;5.68;;;2.47;;
69485;SDS011;56677;51.710;5.366;2023-03-01T08:44:27;2.83;;;2.10;;
69485;SDS011;56677;51.710;5.366;2023-03-01T08:46:52;5.20;;;2.28;;
69485;SDS011;56677;51.710;5.366;2023-03-01T08:49:18;3.35;;;1.80;;
69485;SDS011;56677;51.710;5.366;2023-03-01T08:51:44;4.77;;;1.97;;
69485;SDS011;56677;51.710;5.366;2023-03-01T08:54:11;3.58;;;2.10;;
69485;SDS011;56677;51.710;5.366;2023-03-01T08:56:36;6.65;;;3.85;;
69485;SDS011;56677;51.710;5.366;2023-03-01T08:59:01;7.73;;;2.90;;
69485;SDS011;56677;51.710;5.366;2023-03-01T09:01:26;5.80;;;3.20;;
69485;SDS011;56677;51.710;5.366;2023-03-01T09:03:51;6.30;;;2.95;;
69485;SDS011;56677;51.710;5.366;2023-03-01T09:06:16;8.35;;;3.78;;
69485;SDS011;56677;51.710;5.366;2023-03-01T09:08:43;6.97;;;3.90;;
69485;SDS011;56677;51.710;5.366;2023-03-01T09:11:09;5.87;;;3.13;;
69485;SDS011;56677;51.710;5.366;2023-03-01T09:13:34;6.38;;;3.72;;
69485;SDS011;56677;51.710;5.366;2023-03-01T09:16:00;6.07;;;3.30;;
69485;SDS011;56677;51.710;5.366;2023-03-01T09:18:26;8.18;;;3.33;;
69485;SDS011;56677;51.710;5.366;2023-03-01T09:20:51;6.90;;;3.60;;
69485;SDS011;56677;51.710;5.366;2023-03-01T09:23:16;6.40;;;3.83;;
69485;SDS011;56677;51.710;5.366;2023-03-01T09:25:41;6.82;;;3.78;;
69485;SDS011;56677;51.710;5.366;2023-03-01T09:28:06;6.85;;;3.53;;
69485;SDS011;56677;51.710;5.366;2023-03-01T09:30:31;7.75;;;3.50;;
69485;SDS011;56677;51.710;5.366;2023-03-01T09:32:57;8.17;;;3.57;;
69485;SDS011;56677;51.710;5.366;2023-03-01T09:35:22;6.30;;;3.13;;
69485;SDS011;56677;51.710;5.366;2023-03-01T09:37:47;7.20;;;3.72;;
69485;SDS011;56677;51.710;5.366;2023-03-01T09:40:14;7.03;;;3.70;;
69485;SDS011;56677;51.710;5.366;2023-03-01T09:42:44;8.47;;;3.63;;
69485;SDS011;56677;51.710;5.366;2023-03-01T09:45:11;7.43;;;3.70;;
69485;SDS011;56677;51.710;5.366;2023-03-01T09:47:39;6.45;;;3.20;;
69485;SDS011;56677;51.710;5.366;2023-03-01T09:50:16;5.97;;;3.13;;
69485;SDS011;56677;51.710;5.366;2023-03-01T09:52:42;6.43;;;3.97;;
69485;SDS011;56677;51.710;5.366;2023-03-01T09:55:12;7.32;;;3.40;;
69485;SDS011;56677;51.710;5.366;2023-03-01T09:57:54;8.80;;;3.58;;
69485;SDS011;56677;51.710;5.366;2023-03-01T10:00:29;5.77;;;3.07;;
69485;SDS011;56677;51.710;5.366;2023-03-01T10:03:16;8.88;;;3.33;;
69485;SDS011;56677;51.710;5.366;2023-03-01T10:08:36;7.05;;;3.50;;
69485;SDS011;56677;51.710;5.366;2023-03-01T10:11:02;6.65;;;3.05;;
69485;SDS011;56677;51.710;5.366;2023-03-01T10:15:54;5.75;;;3.40;;
69485;SDS011;56677;51.710;5.366;2023-03-01T10:18:20;6.32;;;2.72;;
69485;SDS011;56677;51.710;5.366;2023-03-01T10:20:53;6.80;;;3.22;;
69485;SDS011;56677;51.710;5.366;2023-03-01T10:23:20;6.78;;;3.55;;
69485;SDS011;56677;51.710;5.366;2023-03-01T10:25:47;5.83;;;2.90;;
69485;SDS011;56677;51.710;5.366;2023-03-01T10:31:00;5.18;;;2.90;;
69485;SDS011;56677;51.710;5.366;2023-03-01T10:33:32;6.27;;;3.10;;
69485;SDS011;56677;51.710;5.366;2023-03-01T10:35:58;6.03;;;3.10;;
69485;SDS011;56677;51.710;5.366;2023-03-01T10:38:24;5.45;;;2.88;;
69485;SDS011;56677;51.710;5.366;2023-03-01T10:41:05;5.63;;;3.20;;
69485;SDS011;56677;51.710;5.366;2023-03-01T10:43:53;5.03;;;3.03;;
69485;SDS011;56677;51.710;5.366;2023-03-01T10:46:22;4.93;;;3.03;;
69485;SDS011;56677;51.710;5.366;2023-03-01T10:48:57;6.05;;;2.83;;
69485;SDS011;56677;51.710;5.366;2023-03-01T10:51:30;5.45;;;3.35;;
69485;SDS011;56677;51.710;5.366;2023-03-01T10:53:55;5.03;;;2.80;;
69485;SDS011;56677;51.710;5.366;2023-03-01T10:56:20;4.50;;;2.60;;
69485;SDS011;56677;51.710;5.366;2023-03-01T10:59:19;5.47;;;3.45;;
69485;SDS011;56677;51.710;5.366;2023-03-01T11:01:37;5.13;;;3.00;;
69485;SDS011;56677;51.710;5.366;2023-03-01T11:06:30;4.82;;;3.10;;
69485;SDS011;56677;51.710;5.366;2023-03-01T11:08:55;4.72;;;2.75;;
69485;SDS011;56677;51.710;5.366;2023-03-01T11:11:33;5.65;;;3.05;;
69485;SDS011;56677;51.710;5.366;2023-03-01T11:14:00;6.57;;;2.85;;
69485;SDS011;56677;51.710;5.366;2023-03-01T11:16:35;5.60;;;3.20;;
69485;SDS011;56677;51.710;5.366;2023-03-01T11:19:04;5.00;;;3.90;;
69485;SDS011;56677;51.710;5.366;2023-03-01T11:21:42;5.35;;;3.20;;
69485;SDS011;56677;51.710;5.366;2023-03-01T11:24:09;7.57;;;3.03;;
69485;SDS011;56677;51.710;5.366;2023-03-01T11:26:36;5.38;;;2.65;;
69485;SDS011;56677;51.710;5.366;2023-03-01T11:29:04;5.03;;;3.38;;
69485;SDS011;56677;51.710;5.366;2023-03-01T11:31:29;6.10;;;4.10;;
69485;SDS011;56677;51.710;5.366;2023-03-01T11:36:58;4.35;;;2.55;;
69485;SDS011;56677;51.710;5.366;2023-03-01T11:39:28;5.13;;;2.80;;
69485;SDS011;56677;51.710;5.366;2023-03-01T11:42:05;4.03;;;2.50;;
69485;SDS011;56677;51.710;5.366;2023-03-01T11:44:31;4.97;;;2.75;;
69485;SDS011;56677;51.710;5.366;2023-03-01T11:57:20;4.22;;;2.63;;
69485;SDS011;56677;51.710;5.366;2023-03-01T11:59:57;4.38;;;2.63;;
69485;SDS011;56677;51.710;5.366;2023-03-01T12:05:12;4.57;;;2.60;;
69485;SDS011;56677;51.710;5.366;2023-03-01T12:10:25;5.32;;;2.63;;
69485;SDS011;56677;51.710;5.366;2023-03-01T12:20:47;3.87;;;2.43;;
69485;SDS011;56677;51.710;5.366;2023-03-01T12:29:34;4.97;;;2.92;;
69485;SDS011;56677;51.710;5.366;2023-03-01T12:45:02;6.00;;;2.67;;
69485;SDS011;56677;51.710;5.366;2023-03-01T12:50:17;5.18;;;2.50;;
69485;SDS011;56677;51.710;5.366;2023-03-01T12:52:44;4.53;;;2.30;;
69485;SDS011;56677;51.710;5.366;2023-03-01T12:55:19;4.75;;;2.20;;
69485;SDS011;56677;51.710;5.366;2023-03-01T13:00:30;4.30;;;2.17;;
69485;SDS011;56677;51.710;5.366;2023-03-01T13:02:59;3.35;;;2.00;;
69485;SDS011;56677;51.710;5.366;2023-03-01T13:05:34;4.35;;;2.30;;
69485;SDS011;56677;51.710;5.366;2023-03-01T13:08:04;3.95;;;2.15;;
69485;SDS011;56677;51.710;5.366;2023-03-01T13:15:33;3.75;;;2.28;;
69485;SDS011;56677;51.710;5.366;2023-03-01T13:30:59;3.63;;;2.40;;
69485;SDS011;56677;51.710;5.366;2023-03-01T13:35:52;4.95;;;2.55;;
69485;SDS011;56677;51.710;5.366;2023-03-01T13:41:02;3.90;;;2.43;;
69485;SDS011;56677;51.710;5.366;2023-03-01T13:43:37;3.97;;;2.47;;
69485;SDS011;56677;51.710;5.366;2023-03-01T13:46:35;3.22;;;2.17;;
69485;SDS011;56677;51.710;5.366;2023-03-01T13:48:54;3.67;;;2.20;;
69485;SDS011;56677;51.710;5.366;2023-03-01T13:51:22;4.38;;;2.47;;
69485;SDS011;56677;51.710;5.366;2023-03-01T13:53:47;4.32;;;2.55;;
69485;SDS011;56677;51.710;5.366;2023-03-01T13:56:20;3.20;;;2.00;;
69485;SDS011;56677;51.710;5.366;2023-03-01T13:58:48;4.05;;;2.28;;
69485;SDS011;56677;51.710;5.366;2023-03-01T14:01:24;4.35;;;2.53;;
69485;SDS011;56677;51.710;5.366;2023-03-01T14:03:49;3.67;;;2.60;;
69485;SDS011;56677;51.710;5.366;2023-03-01T14:06:15;3.92;;;2.40;;
69485;SDS011;56677;51.710;5.366;2023-03-01T14:08:41;4.90;;;2.08;;
69485;SDS011;56677;51.710;5.366;2023-03-01T14:11:19;5.70;;;2.88;;
69485;SDS011;56677;51.710;5.366;2023-03-01T14:16:36;3.08;;;2.17;;
69485;SDS011;56677;51.710;5.366;2023-03-01T14:21:37;3.33;;;2.20;;
69485;SDS011;56677;51.710;5.366;2023-03-01T14:24:02;4.00;;;2.43;;
69485;SDS011;56677;51.710;5.366;2023-03-01T14:26:28;4.70;;;2.23;;
69485;SDS011;56677;51.710;5.366;2023-03-01T14:28:54;3.60;;;2.00;;
69485;SDS011;56677;51.710;5.366;2023-03-01T14:31:30;3.55;;;1.95;;
69485;SDS011;56677;51.710;5.366;2023-03-01T14:33:56;3.77;;;2.60;;
69485;SDS011;56677;51.710;5.366;2023-03-01T14:36:25;4.38;;;2.50;;
69485;SDS011;56677;51.710;5.366;2023-03-01T14:38:51;3.40;;;2.00;;
69485;SDS011;56677;51.710;5.366;2023-03-01T14:41:24;4.35;;;2.22;;
69485;SDS011;56677;51.710;5.366;2023-03-01T14:43:55;3.20;;;2.03;;
69485;SDS011;56677;51.710;5.366;2023-03-01T14:46:21;3.30;;;2.10;;
69485;SDS011;56677;51.710;5.366;2023-03-01T14:48:51;3.50;;;2.08;;
69485;SDS011;56677;51.710;5.366;2023-03-01T14:51:17;4.33;;;1.90;;
69485;SDS011;56677;51.710;5.366;2023-03-01T14:53:43;6.10;;;2.27;;
69485;SDS011;56677;51.710;5.366;2023-03-01T14:56:15;4.05;;;2.10;;
69485;SDS011;56677;51.710;5.366;2023-03-01T14:58:40;3.97;;;1.67;;
69485;SDS011;56677;51.710;5.366;2023-03-01T15:01:05;3.35;;;1.60;;
69485;SDS011;56677;51.710;5.366;2023-03-01T15:03:32;2.87;;;1.90;;
69485;SDS011;56677;51.710;5.366;2023-03-01T15:05:58;3.70;;;2.07;;
69485;SDS011;56677;51.710;5.366;2023-03-01T15:08:24;3.72;;;1.88;;
69485;SDS011;56677;51.710;5.366;2023-03-01T15:10:57;4.35;;;2.00;;
69485;SDS011;56677;51.710;5.366;2023-03-01T15:13:23;3.70;;;2.00;;
69485;SDS011;56677;51.710;5.366;2023-03-01T15:15:49;3.33;;;2.00;;
69485;SDS011;56677;51.710;5.366;2023-03-01T15:18:22;3.58;;;2.50;;
69485;SDS011;56677;51.710;5.366;2023-03-01T15:20:50;3.90;;;2.05;;
69485;SDS011;56677;51.710;5.366;2023-03-01T15:23:28;3.27;;;1.93;;
69485;SDS011;56677;51.710;5.366;2023-03-01T15:25:54;2.75;;;1.95;;
69485;SDS011;56677;51.710;5.366;2023-03-01T15:28:20;3.60;;;2.10;;
69485;SDS011;56677;51.710;5.366;2023-03-01T15:30:45;2.77;;;2.00;;
69485;SDS011;56677;51.710;5.366;2023-03-01T15:33:17;3.50;;;1.77;;
69485;SDS011;56677;51.710;5.366;2023-03-01T15:35:43;3.00;;;1.92;;
69485;SDS011;56677;51.710;5.366;2023-03-01T15:40:50;3.50;;;2.00;;
69485;SDS011;56677;51.710;5.366;2023-03-01T15:45:59;3.67;;;2.10;;
69485;SDS011;56677;51.710;5.366;2023-03-01T15:48:24;3.65;;;1.45;;
69485;SDS011;56677;51.710;5.366;2023-03-01T15:50:55;3.60;;;1.65;;
69485;SDS011;56677;51.710;5.366;2023-03-01T15:53:21;3.47;;;2.10;;
69485;SDS011;56677;51.710;5.366;2023-03-01T15:55:46;3.10;;;1.70;;
69485;SDS011;56677;51.710;5.366;2023-03-01T15:58:22;3.47;;;2.00;;
69485;SDS011;56677;51.710;5.366;2023-03-01T16:00:48;2.55;;;1.80;;
69485;SDS011;56677;51.710;5.366;2023-03-01T16:03:14;3.58;;;1.70;;
69485;SDS011;56677;51.710;5.366;2023-03-01T16:05:39;3.60;;;2.30;;
69485;SDS011;56677;51.710;5.366;2023-03-01T16:08:05;3.20;;;1.92;;
69485;SDS011;56677;51.710;5.366;2023-03-01T16:10:31;3.25;;;2.00;;
69485;SDS011;56677;51.710;5.366;2023-03-01T16:12:56;4.38;;;2.13;;
69485;SDS011;56677;51.710;5.366;2023-03-01T16:17:47;3.05;;;1.90;;
69485;SDS011;56677;51.710;5.366;2023-03-01T16:20:12;4.70;;;2.20;;
69485;SDS011;56677;51.710;5.366;2023-03-01T16:22:38;3.10;;;2.00;;
69485;SDS011;56677;51.710;5.366;2023-03-01T16:25:03;4.93;;;2.40;;
69485;SDS011;56677;51.710;5.366;2023-03-01T16:27:28;2.83;;;1.87;;
69485;SDS011;56677;51.710;5.366;2023-03-01T16:29:53;3.53;;;1.90;;
69485;SDS011;56677;51.710;5.366;2023-03-01T16:32:18;3.63;;;1.92;;
69485;SDS011;56677;51.710;5.366;2023-03-01T16:34:43;4.30;;;2.00;;
69485;SDS011;56677;51.710;5.366;2023-03-01T16:37:08;3.70;;;2.00;;
69485;SDS011;56677;51.710;5.366;2023-03-01T16:39:34;3.30;;;2.13;;
69485;SDS011;56677;51.710;5.366;2023-03-01T16:41:59;3.45;;;2.28;;
69485;SDS011;56677;51.710;5.366;2023-03-01T16:44:25;4.45;;;1.80;;
69485;SDS011;56677;51.710;5.366;2023-03-01T16:46:50;6.00;;;2.03;;
69485;SDS011;56677;51.710;5.366;2023-03-01T16:49:15;4.20;;;2.00;;
69485;SDS011;56677;51.710;5.366;2023-03-01T16:51:40;5.13;;;2.05;;
69485;SDS011;56677;51.710;5.366;2023-03-01T16:54:05;5.90;;;2.40;;
69485;SDS011;56677;51.710;5.366;2023-03-01T16:56:30;6.45;;;2.42;;
69485;SDS011;56677;51.710;5.366;2023-03-01T16:58:55;5.90;;;2.97;;
69485;SDS011;56677;51.710;5.366;2023-03-01T17:01:20;6.18;;;2.80;;
69485;SDS011;56677;51.710;5.366;2023-03-01T17:03:46;5.15;;;2.72;;
69485;SDS011;56677;51.710;5.366;2023-03-01T17:06:13;4.47;;;2.70;;
69485;SDS011;56677;51.710;5.366;2023-03-01T17:08:38;4.57;;;2.53;;
69485;SDS011;56677;51.710;5.366;2023-03-01T17:11:12;6.55;;;2.28;;
69485;SDS011;56677;51.710;5.366;2023-03-01T17:13:37;5.23;;;2.80;;
69485;SDS011;56677;51.710;5.366;2023-03-01T17:16:03;4.78;;;2.30;;
69485;SDS011;56677;51.710;5.366;2023-03-01T17:18:28;5.47;;;2.67;;
69485;SDS011;56677;51.710;5.366;2023-03-01T17:20:53;6.28;;;2.55;;
69485;SDS011;56677;51.710;5.366;2023-03-01T17:23:18;6.22;;;2.53;;
69485;SDS011;56677;51.710;5.366;2023-03-01T17:25:43;5.00;;;2.30;;
69485;SDS011;56677;51.710;5.366;2023-03-01T17:28:09;5.70;;;2.75;;
69485;SDS011;56677;51.710;5.366;2023-03-01T17:30:34;5.65;;;2.53;;
69485;SDS011;56677;51.710;5.366;2023-03-01T17:32:59;6.53;;;2.45;;
69485;SDS011;56677;51.710;5.366;2023-03-01T17:35:24;4.13;;;2.47;;
69485;SDS011;56677;51.710;5.366;2023-03-01T17:37:49;4.80;;;2.47;;
69485;SDS011;56677;51.710;5.366;2023-03-01T17:40:14;4.53;;;2.53;;
69485;SDS011;56677;51.710;5.366;2023-03-01T17:42:39;6.20;;;2.23;;
69485;SDS011;56677;51.710;5.366;2023-03-01T17:45:05;6.07;;;2.50;;
69485;SDS011;56677;51.710;5.366;2023-03-01T17:47:30;4.60;;;2.40;;
69485;SDS011;56677;51.710;5.366;2023-03-01T17:49:55;6.72;;;2.35;;
69485;SDS011;56677;51.710;5.366;2023-03-01T17:52:20;4.70;;;2.22;;
69485;SDS011;56677;51.710;5.366;2023-03-01T17:54:45;6.03;;;2.20;;
69485;SDS011;56677;51.710;5.366;2023-03-01T17:57:11;5.38;;;2.10;;
69485;SDS011;56677;51.710;5.366;2023-03-01T17:59:36;5.78;;;2.38;;
69485;SDS011;56677;51.710;5.366;2023-03-01T18:02:01;4.53;;;2.37;;
69485;SDS011;56677;51.710;5.366;2023-03-01T18:04:26;6.87;;;2.30;;
69485;SDS011;56677;51.710;5.366;2023-03-01T18:06:51;7.72;;;2.05;;
69485;SDS011;56677;51.710;5.366;2023-03-01T18:09:17;4.70;;;2.30;;
69485;SDS011;56677;51.710;5.366;2023-03-01T18:11:42;4.88;;;2.38;;
69485;SDS011;56677;51.710;5.366;2023-03-01T18:14:07;4.30;;;1.97;;
69485;SDS011;56677;51.710;5.366;2023-03-01T18:16:32;5.80;;;2.13;;
69485;SDS011;56677;51.710;5.366;2023-03-01T18:18:58;6.55;;;2.20;;
69485;SDS011;56677;51.710;5.366;2023-03-01T18:21:23;4.67;;;2.43;;
69485;SDS011;56677;51.710;5.366;2023-03-01T18:23:48;5.28;;;2.30;;
69485;SDS011;56677;51.710;5.366;2023-03-01T18:26:13;5.05;;;2.30;;
69485;SDS011;56677;51.710;5.366;2023-03-01T18:28:39;3.83;;;1.83;;
69485;SDS011;56677;51.710;5.366;2023-03-01T18:31:06;4.57;;;2.30;;
69485;SDS011;56677;51.710;5.366;2023-03-01T18:33:31;4.65;;;2.10;;
69485;SDS011;56677;51.710;5.366;2023-03-01T18:35:57;4.65;;;1.95;;
69485;SDS011;56677;51.710;5.366;2023-03-01T18:38:22;5.23;;;2.40;;
69485;SDS011;56677;51.710;5.366;2023-03-01T18:40:47;5.32;;;2.28;;
69485;SDS011;56677;51.710;5.366;2023-03-01T18:43:12;4.53;;;1.90;;
69485;SDS011;56677;51.710;5.366;2023-03-01T18:45:38;4.30;;;1.93;;
69485;SDS011;56677;51.710;5.366;2023-03-01T18:48:03;5.35;;;2.00;;
69485;SDS011;56677;51.710;5.366;2023-03-01T18:50:28;3.93;;;2.43;;
69485;SDS011;56677;51.710;5.366;2023-03-01T18:52:53;5.03;;;2.20;;
69485;SDS011;56677;51.710;5.366;2023-03-01T18:55:18;5.63;;;2.47;;
69485;SDS011;56677;51.710;5.366;2023-03-01T18:57:43;5.03;;;2.53;;
69485;SDS011;56677;51.710;5.366;2023-03-01T19:00:08;4.22;;;2.20;;
69485;SDS011;56677;51.710;5.366;2023-03-01T19:02:34;5.07;;;2.00;;
69485;SDS011;56677;51.710;5.366;2023-03-01T19:04:59;4.15;;;2.10;;
69485;SDS011;56677;51.710;5.366;2023-03-01T19:07:24;3.72;;;2.20;;
69485;SDS011;56677;51.710;5.366;2023-03-01T19:09:49;4.40;;;2.20;;
69485;SDS011;56677;51.710;5.366;2023-03-01T19:12:14;5.27;;;2.30;;
69485;SDS011;56677;51.710;5.366;2023-03-01T19:14:39;4.30;;;2.13;;
69485;SDS011;56677;51.710;5.366;2023-03-01T19:17:04;5.25;;;1.90;;
69485;SDS011;56677;51.710;5.366;2023-03-01T19:19:29;4.55;;;1.83;;
69485;SDS011;56677;51.710;5.366;2023-03-01T19:21:55;3.25;;;1.85;;
69485;SDS011;56677;51.710;5.366;2023-03-01T19:24:20;4.57;;;2.47;;
69485;SDS011;56677;51.710;5.366;2023-03-01T19:26:45;4.15;;;2.15;;
69485;SDS011;56677;51.710;5.366;2023-03-01T19:29:10;4.28;;;1.80;;
69485;SDS011;56677;51.710;5.366;2023-03-01T19:31:36;4.97;;;2.20;;
69485;SDS011;56677;51.710;5.366;2023-03-01T19:34:01;4.15;;;2.03;;
69485;SDS011;56677;51.710;5.366;2023-03-01T19:36:26;4.65;;;1.75;;
69485;SDS011;56677;51.710;5.366;2023-03-01T19:38:51;4.20;;;2.15;;
69485;SDS011;56677;51.710;5.366;2023-03-01T19:41:16;5.32;;;2.33;;
69485;SDS011;56677;51.710;5.366;2023-03-01T19:43:42;4.38;;;2.17;;
69485;SDS011;56677;51.710;5.366;2023-03-01T19:46:08;4.10;;;2.10;;
69485;SDS011;56677;51.710;5.366;2023-03-01T19:48:33;5.93;;;2.23;;
69485;SDS011;56677;51.710;5.366;2023-03-01T19:50:58;4.60;;;1.67;;
69485;SDS011;56677;51.710;5.366;2023-03-01T19:53:23;4.60;;;2.28;;
69485;SDS011;56677;51.710;5.366;2023-03-01T19:55:48;4.53;;;2.05;;
69485;SDS011;56677;51.710;5.366;2023-03-01T19:58:13;3.90;;;1.70;;
69485;SDS011;56677;51.710;5.366;2023-03-01T20:00:42;6.87;;;2.27;;
69485;SDS011;56677;51.710;5.366;2023-03-01T20:03:08;5.90;;;1.83;;
69485;SDS011;56677;51.710;5.366;2023-03-01T20:05:33;5.28;;;2.10;;
69485;SDS011;56677;51.710;5.366;2023-03-01T20:07:58;4.90;;;1.67;;
69485;SDS011;56677;51.710;5.366;2023-03-01T20:10:24;5.47;;;2.05;;
69485;SDS011;56677;51.710;5.366;2023-03-01T20:12:49;4.03;;;1.90;;
69485;SDS011;56677;51.710;5.366;2023-03-01T20:15:14;3.63;;;2.03;;
69485;SDS011;56677;51.710;5.366;2023-03-01T20:17:39;3.30;;;1.80;;
69485;SDS011;56677;51.710;5.366;2023-03-01T20:20:04;3.60;;;1.70;;
69485;SDS011;56677;51.710;5.366;2023-03-01T20:22:30;3.83;;;1.73;;
69485;SDS011;56677;51.710;5.366;2023-03-01T20:24:55;4.13;;;2.35;;
69485;SDS011;56677;51.710;5.366;2023-03-01T20:27:20;3.78;;;1.67;;
69485;SDS011;56677;51.710;5.366;2023-03-01T20:29:45;3.80;;;1.93;;
69485;SDS011;56677;51.710;5.366;2023-03-01T20:32:10;2.83;;;1.70;;
69485;SDS011;56677;51.710;5.366;2023-03-01T20:34:35;4.17;;;1.60;;
69485;SDS011;56677;51.710;5.366;2023-03-01T20:37:00;3.60;;;2.10;;
69485;SDS011;56677;51.710;5.366;2023-03-01T20:39:26;5.30;;;2.00;;
69485;SDS011;56677;51.710;5.366;2023-03-01T20:41:51;3.75;;;1.80;;
69485;SDS011;56677;51.710;5.366;2023-03-01T20:44:16;4.82;;;1.80;;
69485;SDS011;56677;51.710;5.366;2023-03-01T20:46:41;3.58;;;1.75;;
69485;SDS011;56677;51.710;5.366;2023-03-01T20:49:06;4.30;;;1.60;;
69485;SDS011;56677;51.710;5.366;2023-03-01T20:51:31;4.22;;;2.10;;
69485;SDS011;56677;51.710;5.366;2023-03-01T20:53:57;5.70;;;2.03;;
69485;SDS011;56677;51.710;5.366;2023-03-01T20:56:22;4.97;;;2.07;;
69485;SDS011;56677;51.710;5.366;2023-03-01T20:58:47;4.53;;;2.07;;
69485;SDS011;56677;51.710;5.366;2023-03-01T21:01:16;4.30;;;2.30;;
69485;SDS011;56677;51.710;5.366;2023-03-01T21:03:41;6.22;;;2.15;;
69485;SDS011;56677;51.710;5.366;2023-03-01T21:06:07;2.50;;;1.63;;
69485;SDS011;56677;51.710;5.366;2023-03-01T21:08:32;3.80;;;2.03;;
69485;SDS011;56677;51.710;5.366;2023-03-01T21:10:57;4.13;;;1.80;;
69485;SDS011;56677;51.710;5.366;2023-03-01T21:13:23;4.10;;;2.10;;
69485;SDS011;56677;51.710;5.366;2023-03-01T21:16:08;3.55;;;1.90;;
69485;SDS011;56677;51.710;5.366;2023-03-01T21:18:34;4.55;;;2.10;;
69485;SDS011;56677;51.710;5.366;2023-03-01T21:21:00;3.60;;;2.10;;
69485;SDS011;56677;51.710;5.366;2023-03-01T21:23:26;2.80;;;1.58;;
69485;SDS011;56677;51.710;5.366;2023-03-01T21:26:05;5.60;;;1.90;;
69485;SDS011;56677;51.710;5.366;2023-03-01T21:28:31;3.85;;;2.13;;
69485;SDS011;56677;51.710;5.366;2023-03-01T21:31:00;5.10;;;2.23;;
69485;SDS011;56677;51.710;5.366;2023-03-01T21:33:26;5.97;;;2.13;;
69485;SDS011;56677;51.710;5.366;2023-03-01T21:35:51;4.50;;;2.10;;
69485;SDS011;56677;51.710;5.366;2023-03-01T21:38:16;4.40;;;2.17;;
69485;SDS011;56677;51.710;5.366;2023-03-01T21:40:41;3.10;;;1.55;;
69485;SDS011;56677;51.710;5.366;2023-03-01T21:43:06;2.92;;;1.80;;
69485;SDS011;56677;51.710;5.366;2023-03-01T21:45:33;3.67;;;2.10;;
69485;SDS011;56677;51.710;5.366;2023-03-01T21:47:58;3.97;;;2.30;;
69485;SDS011;56677;51.710;5.366;2023-03-01T21:50:23;3.72;;;2.00;;
69485;SDS011;56677;51.710;5.366;2023-03-01T21:52:48;3.45;;;1.60;;
69485;SDS011;56677;51.710;5.366;2023-03-01T21:55:13;3.85;;;2.00;;
69485;SDS011;56677;51.710;5.366;2023-03-01T21:57:38;3.40;;;2.13;;
69485;SDS011;56677;51.710;5.366;2023-03-01T22:00:04;3.80;;;2.03;;
69485;SDS011;56677;51.710;5.366;2023-03-01T22:02:29;3.70;;;1.77;;
69485;SDS011;56677;51.710;5.366;2023-03-01T22:04:54;3.53;;;2.10;;
69485;SDS011;56677;51.710;5.366;2023-03-01T22:07:19;3.78;;;1.35;;
69485;SDS011;56677;51.710;5.366;2023-03-01T22:09:44;3.50;;;2.20;;
69485;SDS011;56677;51.710;5.366;2023-03-01T22:12:09;3.53;;;1.95;;
69485;SDS011;56677;51.710;5.366;2023-03-01T22:14:35;4.07;;;2.33;;
69485;SDS011;56677;51.710;5.366;2023-03-01T22:17:00;3.15;;;2.05;;
69485;SDS011;56677;51.710;5.366;2023-03-01T22:19:25;3.70;;;1.70;;
69485;SDS011;56677;51.710;5.366;2023-03-01T22:21:51;3.63;;;2.33;;
69485;SDS011;56677;51.710;5.366;2023-03-01T22:24:17;4.57;;;1.90;;
69485;SDS011;56677;51.710;5.366;2023-03-01T22:26:43;2.78;;;1.58;;
69485;SDS011;56677;51.710;5.366;2023-03-01T22:29:12;2.80;;;1.75;;
69485;SDS011;56677;51.710;5.366;2023-03-01T22:31:38;3.37;;;1.90;;
69485;SDS011;56677;51.710;5.366;2023-03-01T22:34:04;2.85;;;1.95;;
69485;SDS011;56677;51.710;5.366;2023-03-01T22:36:29;3.30;;;1.80;;
69485;SDS011;56677;51.710;5.366;2023-03-01T22:38:55;3.28;;;2.03;;
69485;SDS011;56677;51.710;5.366;2023-03-01T22:41:20;4.27;;;2.13;;
